sensor_id;sensor_type;location;lat;lon;timestamp;P1;durP1;ratioP1;P2;durP2;ratioP2
71207;SDS011;58938;49.868;8.646;2023-04-25T00:01:14;10.80;;;5.22;;
71207;SDS011;58938;49.868;8.646;2023-04-25T00:03:40;8.27;;;5.05;;
71207;SDS011;58938;49.868;8.646;2023-04-25T00:06:06;8.02;;;4.85;;
71207;SDS011;58938;49.868;8.646;2023-04-25T00:08:32;8.00;;;4.93;;
71207;SDS011;58938;49.868;8.646;2023-04-25T00:10:58;9.40;;;5.03;;
71207;SDS011;58938;49.868;8.646;2023-04-25T00:13:25;8.32;;;4.80;;
71207;SDS011;58938;49.868;8.646;2023-04-25T00:15:51;7.22;;;4.60;;
71207;SDS011;58938;49.868;8.646;2023-04-25T00:18:25;8.73;;;5.82;;
71207;SDS011;58938;49.868;8.646;2023-04-25T00:20:54;8.83;;;4.63;;
71207;SDS011;58938;49.868;8.646;2023-04-25T00:23:20;7.97;;;4.80;;
71207;SDS011;58938;49.868;8.646;2023-04-25T00:25:47;8.20;;;5.32;;
71207;SDS011;58938;49.868;8.646;2023-04-25T00:28:13;9.93;;;4.57;;
71207;SDS011;58938;49.868;8.646;2023-04-25T00:30:40;10.95;;;5.80;;
71207;SDS011;58938;49.868;8.646;2023-04-25T00:33:06;7.80;;;4.67;;
71207;SDS011;58938;49.868;8.646;2023-04-25T00:35:32;10.43;;;5.82;;
71207;SDS011;58938;49.868;8.646;2023-04-25T00:37:58;9.43;;;5.45;;
71207;SDS011;58938;49.868;8.646;2023-04-25T00:40:24;9.75;;;5.65;;
71207;SDS011;58938;49.868;8.646;2023-04-25T00:42:53;9.70;;;5.50;;
71207;SDS011;58938;49.868;8.646;2023-04-25T00:45:20;8.80;;;5.17;;
71207;SDS011;58938;49.868;8.646;2023-04-25T00:47:46;12.10;;;6.03;;
71207;SDS011;58938;49.868;8.646;2023-04-25T00:50:12;10.55;;;5.93;;
71207;SDS011;58938;49.868;8.646;2023-04-25T00:52:43;9.70;;;5.97;;
71207;SDS011;58938;49.868;8.646;2023-04-25T00:55:09;10.20;;;6.25;;
71207;SDS011;58938;49.868;8.646;2023-04-25T00:57:36;10.87;;;6.57;;
71207;SDS011;58938;49.868;8.646;2023-04-25T01:00:03;10.10;;;5.85;;
71207;SDS011;58938;49.868;8.646;2023-04-25T01:02:30;8.70;;;5.68;;
71207;SDS011;58938;49.868;8.646;2023-04-25T01:04:57;8.65;;;5.85;;
71207;SDS011;58938;49.868;8.646;2023-04-25T01:07:23;8.55;;;5.50;;
71207;SDS011;58938;49.868;8.646;2023-04-25T01:09:50;7.90;;;5.10;;
71207;SDS011;58938;49.868;8.646;2023-04-25T01:12:17;10.88;;;6.13;;
71207;SDS011;58938;49.868;8.646;2023-04-25T01:14:43;10.60;;;5.40;;
71207;SDS011;58938;49.868;8.646;2023-04-25T01:17:09;11.07;;;5.50;;
71207;SDS011;58938;49.868;8.646;2023-04-25T01:19:36;12.13;;;5.75;;
71207;SDS011;58938;49.868;8.646;2023-04-25T01:22:02;10.50;;;5.47;;
71207;SDS011;58938;49.868;8.646;2023-04-25T01:24:28;11.10;;;6.75;;
71207;SDS011;58938;49.868;8.646;2023-04-25T01:26:54;10.30;;;6.07;;
71207;SDS011;58938;49.868;8.646;2023-04-25T01:29:21;10.10;;;6.30;;
71207;SDS011;58938;49.868;8.646;2023-04-25T01:31:47;9.20;;;5.43;;
71207;SDS011;58938;49.868;8.646;2023-04-25T01:34:13;11.10;;;5.67;;
71207;SDS011;58938;49.868;8.646;2023-04-25T01:36:39;9.98;;;6.25;;
71207;SDS011;58938;49.868;8.646;2023-04-25T01:39:06;11.70;;;7.38;;
71207;SDS011;58938;49.868;8.646;2023-04-25T01:41:32;10.85;;;6.63;;
71207;SDS011;58938;49.868;8.646;2023-04-25T01:43:59;10.68;;;6.20;;
71207;SDS011;58938;49.868;8.646;2023-04-25T01:46:25;12.90;;;6.73;;
71207;SDS011;58938;49.868;8.646;2023-04-25T01:48:51;9.88;;;6.07;;
71207;SDS011;58938;49.868;8.646;2023-04-25T01:51:17;9.80;;;6.07;;
71207;SDS011;58938;49.868;8.646;2023-04-25T01:53:43;9.35;;;5.88;;
71207;SDS011;58938;49.868;8.646;2023-04-25T01:56:10;10.70;;;5.63;;
71207;SDS011;58938;49.868;8.646;2023-04-25T01:58:35;9.73;;;6.30;;
71207;SDS011;58938;49.868;8.646;2023-04-25T02:01:01;11.15;;;6.20;;
71207;SDS011;58938;49.868;8.646;2023-04-25T02:03:29;10.82;;;5.82;;
71207;SDS011;58938;49.868;8.646;2023-04-25T02:05:55;10.15;;;5.90;;
71207;SDS011;58938;49.868;8.646;2023-04-25T02:08:20;10.53;;;5.73;;
71207;SDS011;58938;49.868;8.646;2023-04-25T02:10:47;11.13;;;5.45;;
71207;SDS011;58938;49.868;8.646;2023-04-25T02:13:13;11.90;;;6.35;;
71207;SDS011;58938;49.868;8.646;2023-04-25T02:15:38;10.52;;;6.57;;
71207;SDS011;58938;49.868;8.646;2023-04-25T02:18:04;11.10;;;6.47;;
71207;SDS011;58938;49.868;8.646;2023-04-25T02:20:31;11.15;;;6.85;;
71207;SDS011;58938;49.868;8.646;2023-04-25T02:22:57;10.23;;;6.10;;
71207;SDS011;58938;49.868;8.646;2023-04-25T02:25:23;10.18;;;6.63;;
71207;SDS011;58938;49.868;8.646;2023-04-25T02:27:49;13.85;;;6.47;;
71207;SDS011;58938;49.868;8.646;2023-04-25T02:30:16;9.83;;;5.30;;
71207;SDS011;58938;49.868;8.646;2023-04-25T02:32:42;10.30;;;5.97;;
71207;SDS011;58938;49.868;8.646;2023-04-25T02:35:08;10.35;;;5.95;;
71207;SDS011;58938;49.868;8.646;2023-04-25T02:37:35;10.07;;;5.90;;
71207;SDS011;58938;49.868;8.646;2023-04-25T02:40:02;10.68;;;5.78;;
71207;SDS011;58938;49.868;8.646;2023-04-25T02:42:29;10.33;;;5.77;;
71207;SDS011;58938;49.868;8.646;2023-04-25T02:44:55;11.02;;;6.60;;
71207;SDS011;58938;49.868;8.646;2023-04-25T02:47:21;11.55;;;6.30;;
71207;SDS011;58938;49.868;8.646;2023-04-25T02:49:46;10.27;;;6.20;;
71207;SDS011;58938;49.868;8.646;2023-04-25T02:52:12;11.03;;;6.97;;
71207;SDS011;58938;49.868;8.646;2023-04-25T02:54:39;10.50;;;6.05;;
71207;SDS011;58938;49.868;8.646;2023-04-25T02:57:05;11.45;;;6.65;;
71207;SDS011;58938;49.868;8.646;2023-04-25T02:59:31;12.20;;;6.70;;
71207;SDS011;58938;49.868;8.646;2023-04-25T03:01:57;11.73;;;6.22;;
71207;SDS011;58938;49.868;8.646;2023-04-25T03:04:23;14.70;;;7.20;;
71207;SDS011;58938;49.868;8.646;2023-04-25T03:06:50;13.43;;;7.40;;
71207;SDS011;58938;49.868;8.646;2023-04-25T03:09:16;13.05;;;7.43;;
71207;SDS011;58938;49.868;8.646;2023-04-25T03:11:42;11.57;;;6.68;;
71207;SDS011;58938;49.868;8.646;2023-04-25T03:14:08;13.82;;;8.52;;
71207;SDS011;58938;49.868;8.646;2023-04-25T03:16:34;12.10;;;6.77;;
71207;SDS011;58938;49.868;8.646;2023-04-25T03:19:00;14.40;;;7.20;;
71207;SDS011;58938;49.868;8.646;2023-04-25T03:21:26;14.88;;;7.57;;
71207;SDS011;58938;49.868;8.646;2023-04-25T03:23:52;13.25;;;7.50;;
71207;SDS011;58938;49.868;8.646;2023-04-25T03:26:18;11.47;;;6.83;;
71207;SDS011;58938;49.868;8.646;2023-04-25T03:28:44;12.77;;;7.43;;
71207;SDS011;58938;49.868;8.646;2023-04-25T03:31:09;13.50;;;8.27;;
71207;SDS011;58938;49.868;8.646;2023-04-25T03:33:35;12.77;;;6.85;;
71207;SDS011;58938;49.868;8.646;2023-04-25T03:36:01;12.53;;;7.20;;
71207;SDS011;58938;49.868;8.646;2023-04-25T03:38:28;13.18;;;6.75;;
71207;SDS011;58938;49.868;8.646;2023-04-25T03:40:54;12.68;;;7.93;;
71207;SDS011;58938;49.868;8.646;2023-04-25T03:43:21;13.10;;;8.90;;
71207;SDS011;58938;49.868;8.646;2023-04-25T03:45:47;14.75;;;7.88;;
71207;SDS011;58938;49.868;8.646;2023-04-25T03:48:13;13.63;;;7.93;;
71207;SDS011;58938;49.868;8.646;2023-04-25T03:50:39;13.27;;;7.70;;
71207;SDS011;58938;49.868;8.646;2023-04-25T03:53:05;12.25;;;7.28;;
71207;SDS011;58938;49.868;8.646;2023-04-25T03:55:31;12.77;;;6.82;;
71207;SDS011;58938;49.868;8.646;2023-04-25T03:57:57;12.30;;;7.10;;
71207;SDS011;58938;49.868;8.646;2023-04-25T04:00:24;11.77;;;7.63;;
71207;SDS011;58938;49.868;8.646;2023-04-25T04:02:50;13.32;;;7.70;;
71207;SDS011;58938;49.868;8.646;2023-04-25T04:05:16;14.13;;;7.80;;
71207;SDS011;58938;49.868;8.646;2023-04-25T04:07:42;13.75;;;7.78;;
71207;SDS011;58938;49.868;8.646;2023-04-25T04:10:08;12.73;;;6.90;;
71207;SDS011;58938;49.868;8.646;2023-04-25T04:12:34;13.73;;;7.70;;
71207;SDS011;58938;49.868;8.646;2023-04-25T04:15:01;14.70;;;8.50;;
71207;SDS011;58938;49.868;8.646;2023-04-25T04:17:28;13.43;;;8.38;;
71207;SDS011;58938;49.868;8.646;2023-04-25T04:19:54;13.05;;;7.97;;
71207;SDS011;58938;49.868;8.646;2023-04-25T04:22:20;14.23;;;8.80;;
71207;SDS011;58938;49.868;8.646;2023-04-25T04:24:46;13.65;;;7.32;;
71207;SDS011;58938;49.868;8.646;2023-04-25T04:27:12;12.98;;;7.50;;
71207;SDS011;58938;49.868;8.646;2023-04-25T04:29:38;12.10;;;7.38;;
71207;SDS011;58938;49.868;8.646;2023-04-25T04:32:04;14.93;;;7.90;;
71207;SDS011;58938;49.868;8.646;2023-04-25T04:34:30;14.50;;;9.23;;
71207;SDS011;58938;49.868;8.646;2023-04-25T04:36:56;12.95;;;7.40;;
71207;SDS011;58938;49.868;8.646;2023-04-25T04:39:22;14.30;;;8.90;;
71207;SDS011;58938;49.868;8.646;2023-04-25T04:41:48;14.80;;;7.57;;
71207;SDS011;58938;49.868;8.646;2023-04-25T04:44:15;15.02;;;8.90;;
71207;SDS011;58938;49.868;8.646;2023-04-25T04:46:41;15.10;;;8.98;;
71207;SDS011;58938;49.868;8.646;2023-04-25T04:49:08;14.50;;;8.50;;
71207;SDS011;58938;49.868;8.646;2023-04-25T04:51:34;16.50;;;9.23;;
71207;SDS011;58938;49.868;8.646;2023-04-25T04:54:01;17.05;;;7.85;;
71207;SDS011;58938;49.868;8.646;2023-04-25T04:56:28;15.70;;;8.80;;
71207;SDS011;58938;49.868;8.646;2023-04-25T04:58:56;14.82;;;8.30;;
71207;SDS011;58938;49.868;8.646;2023-04-25T05:01:22;17.67;;;9.13;;
71207;SDS011;58938;49.868;8.646;2023-04-25T05:03:48;14.53;;;7.87;;
71207;SDS011;58938;49.868;8.646;2023-04-25T05:06:14;18.63;;;8.70;;
71207;SDS011;58938;49.868;8.646;2023-04-25T05:08:40;16.33;;;9.02;;
71207;SDS011;58938;49.868;8.646;2023-04-25T05:11:06;15.10;;;7.35;;
71207;SDS011;58938;49.868;8.646;2023-04-25T05:13:32;16.23;;;9.20;;
71207;SDS011;58938;49.868;8.646;2023-04-25T05:15:58;17.38;;;7.85;;
71207;SDS011;58938;49.868;8.646;2023-04-25T05:18:24;14.95;;;8.35;;
71207;SDS011;58938;49.868;8.646;2023-04-25T05:20:50;16.88;;;8.05;;
71207;SDS011;58938;49.868;8.646;2023-04-25T05:23:16;13.03;;;6.40;;
71207;SDS011;58938;49.868;8.646;2023-04-25T05:25:42;8.45;;;4.70;;
71207;SDS011;58938;49.868;8.646;2023-04-25T05:28:08;16.92;;;8.40;;
71207;SDS011;58938;49.868;8.646;2023-04-25T05:30:34;22.30;;;8.60;;
71207;SDS011;58938;49.868;8.646;2023-04-25T05:33:00;19.70;;;7.97;;
71207;SDS011;58938;49.868;8.646;2023-04-25T05:35:26;20.17;;;9.43;;
71207;SDS011;58938;49.868;8.646;2023-04-25T05:37:52;16.23;;;7.78;;
71207;SDS011;58938;49.868;8.646;2023-04-25T05:40:18;20.00;;;7.68;;
71207;SDS011;58938;49.868;8.646;2023-04-25T05:42:44;18.57;;;8.03;;
71207;SDS011;58938;49.868;8.646;2023-04-25T05:45:10;19.17;;;8.63;;
71207;SDS011;58938;49.868;8.646;2023-04-25T05:47:36;17.83;;;8.55;;
71207;SDS011;58938;49.868;8.646;2023-04-25T05:50:02;16.80;;;7.65;;
71207;SDS011;58938;49.868;8.646;2023-04-25T05:52:28;20.67;;;9.00;;
71207;SDS011;58938;49.868;8.646;2023-04-25T05:54:54;19.23;;;7.67;;
71207;SDS011;58938;49.868;8.646;2023-04-25T05:57:24;22.98;;;8.10;;
71207;SDS011;58938;49.868;8.646;2023-04-25T05:59:51;16.75;;;9.00;;
71207;SDS011;58938;49.868;8.646;2023-04-25T06:02:17;19.17;;;7.38;;
71207;SDS011;58938;49.868;8.646;2023-04-25T06:04:43;18.05;;;7.82;;
71207;SDS011;58938;49.868;8.646;2023-04-25T06:07:09;14.57;;;7.70;;
71207;SDS011;58938;49.868;8.646;2023-04-25T06:09:35;18.83;;;7.20;;
71207;SDS011;58938;49.868;8.646;2023-04-25T06:12:01;15.40;;;7.03;;
71207;SDS011;58938;49.868;8.646;2023-04-25T06:14:28;16.38;;;8.40;;
71207;SDS011;58938;49.868;8.646;2023-04-25T06:16:54;18.80;;;7.77;;
71207;SDS011;58938;49.868;8.646;2023-04-25T06:19:20;20.30;;;8.23;;
71207;SDS011;58938;49.868;8.646;2023-04-25T06:21:45;16.33;;;6.82;;
71207;SDS011;58938;49.868;8.646;2023-04-25T06:24:12;17.85;;;8.00;;
71207;SDS011;58938;49.868;8.646;2023-04-25T06:26:37;14.00;;;6.63;;
71207;SDS011;58938;49.868;8.646;2023-04-25T06:29:03;16.85;;;7.72;;
71207;SDS011;58938;49.868;8.646;2023-04-25T06:31:29;18.13;;;7.90;;
71207;SDS011;58938;49.868;8.646;2023-04-25T06:33:58;14.30;;;7.00;;
71207;SDS011;58938;49.868;8.646;2023-04-25T06:36:23;16.00;;;6.83;;
71207;SDS011;58938;49.868;8.646;2023-04-25T06:38:52;21.13;;;7.28;;
71207;SDS011;58938;49.868;8.646;2023-04-25T06:41:19;15.65;;;6.75;;
71207;SDS011;58938;49.868;8.646;2023-04-25T06:43:45;17.20;;;8.05;;
71207;SDS011;58938;49.868;8.646;2023-04-25T06:46:11;16.20;;;7.97;;
71207;SDS011;58938;49.868;8.646;2023-04-25T06:48:37;12.00;;;7.07;;
71207;SDS011;58938;49.868;8.646;2023-04-25T06:51:03;12.73;;;6.65;;
71207;SDS011;58938;49.868;8.646;2023-04-25T06:53:30;12.05;;;6.95;;
71207;SDS011;58938;49.868;8.646;2023-04-25T06:55:56;14.95;;;6.97;;
71207;SDS011;58938;49.868;8.646;2023-04-25T06:58:22;15.70;;;7.03;;
71207;SDS011;58938;49.868;8.646;2023-04-25T07:00:48;17.10;;;7.22;;
71207;SDS011;58938;49.868;8.646;2023-04-25T07:03:14;13.45;;;6.53;;
71207;SDS011;58938;49.868;8.646;2023-04-25T07:05:40;16.83;;;7.18;;
71207;SDS011;58938;49.868;8.646;2023-04-25T07:08:06;13.30;;;6.63;;
71207;SDS011;58938;49.868;8.646;2023-04-25T07:10:32;12.88;;;7.20;;
71207;SDS011;58938;49.868;8.646;2023-04-25T07:12:58;15.00;;;5.93;;
71207;SDS011;58938;49.868;8.646;2023-04-25T07:15:24;13.25;;;6.53;;
71207;SDS011;58938;49.868;8.646;2023-04-25T07:17:50;15.07;;;6.13;;
71207;SDS011;58938;49.868;8.646;2023-04-25T07:20:16;13.02;;;6.57;;
71207;SDS011;58938;49.868;8.646;2023-04-25T07:22:42;13.10;;;7.90;;
71207;SDS011;58938;49.868;8.646;2023-04-25T07:25:09;13.15;;;6.40;;
71207;SDS011;58938;49.868;8.646;2023-04-25T07:27:35;12.30;;;6.32;;
71207;SDS011;58938;49.868;8.646;2023-04-25T07:30:01;19.17;;;7.43;;
71207;SDS011;58938;49.868;8.646;2023-04-25T07:32:28;13.93;;;6.38;;
71207;SDS011;58938;49.868;8.646;2023-04-25T07:34:54;14.07;;;6.65;;
71207;SDS011;58938;49.868;8.646;2023-04-25T07:37:20;13.15;;;6.15;;
71207;SDS011;58938;49.868;8.646;2023-04-25T07:39:46;11.85;;;6.13;;
71207;SDS011;58938;49.868;8.646;2023-04-25T07:42:12;10.60;;;6.40;;
71207;SDS011;58938;49.868;8.646;2023-04-25T07:44:38;8.45;;;4.50;;
71207;SDS011;58938;49.868;8.646;2023-04-25T07:47:08;13.73;;;4.65;;
71207;SDS011;58938;49.868;8.646;2023-04-25T07:49:37;10.23;;;5.55;;
71207;SDS011;58938;49.868;8.646;2023-04-25T07:52:04;16.43;;;5.77;;
71207;SDS011;58938;49.868;8.646;2023-04-25T07:54:34;13.18;;;5.28;;
71207;SDS011;58938;49.868;8.646;2023-04-25T07:57:00;12.73;;;6.00;;
71207;SDS011;58938;49.868;8.646;2023-04-25T07:59:27;11.10;;;4.85;;
71207;SDS011;58938;49.868;8.646;2023-04-25T08:01:53;12.60;;;6.10;;
71207;SDS011;58938;49.868;8.646;2023-04-25T08:04:19;13.50;;;5.70;;
71207;SDS011;58938;49.868;8.646;2023-04-25T08:06:45;13.05;;;6.50;;
71207;SDS011;58938;49.868;8.646;2023-04-25T08:09:12;13.40;;;5.55;;
71207;SDS011;58938;49.868;8.646;2023-04-25T08:11:38;12.95;;;6.18;;
71207;SDS011;58938;49.868;8.646;2023-04-25T08:14:05;12.50;;;4.70;;
71207;SDS011;58938;49.868;8.646;2023-04-25T08:16:31;10.40;;;4.93;;
71207;SDS011;58938;49.868;8.646;2023-04-25T08:18:56;7.70;;;4.15;;
71207;SDS011;58938;49.868;8.646;2023-04-25T08:21:22;8.63;;;4.40;;
71207;SDS011;58938;49.868;8.646;2023-04-25T08:23:49;8.82;;;4.53;;
71207;SDS011;58938;49.868;8.646;2023-04-25T08:26:15;10.03;;;3.87;;
71207;SDS011;58938;49.868;8.646;2023-04-25T08:28:40;7.90;;;3.95;;
71207;SDS011;58938;49.868;8.646;2023-04-25T08:31:06;17.88;;;5.15;;
71207;SDS011;58938;49.868;8.646;2023-04-25T08:33:32;7.53;;;4.05;;
71207;SDS011;58938;49.868;8.646;2023-04-25T08:35:58;11.03;;;5.13;;
71207;SDS011;58938;49.868;8.646;2023-04-25T08:38:24;10.77;;;5.00;;
71207;SDS011;58938;49.868;8.646;2023-04-25T08:40:50;11.48;;;4.97;;
71207;SDS011;58938;49.868;8.646;2023-04-25T08:43:18;10.85;;;4.00;;
71207;SDS011;58938;49.868;8.646;2023-04-25T08:45:44;11.32;;;4.20;;
71207;SDS011;58938;49.868;8.646;2023-04-25T08:48:12;7.80;;;4.13;;
71207;SDS011;58938;49.868;8.646;2023-04-25T08:50:39;10.57;;;3.83;;
71207;SDS011;58938;49.868;8.646;2023-04-25T08:53:05;11.98;;;5.25;;
71207;SDS011;58938;49.868;8.646;2023-04-25T08:55:33;10.98;;;5.15;;
71207;SDS011;58938;49.868;8.646;2023-04-25T08:57:59;10.70;;;4.38;;
71207;SDS011;58938;49.868;8.646;2023-04-25T09:00:26;9.70;;;4.47;;
71207;SDS011;58938;49.868;8.646;2023-04-25T09:02:52;7.47;;;4.30;;
71207;SDS011;58938;49.868;8.646;2023-04-25T09:05:18;10.57;;;4.55;;
71207;SDS011;58938;49.868;8.646;2023-04-25T09:07:44;8.60;;;4.10;;
71207;SDS011;58938;49.868;8.646;2023-04-25T09:10:10;12.60;;;4.90;;
71207;SDS011;58938;49.868;8.646;2023-04-25T09:12:36;9.93;;;4.47;;
71207;SDS011;58938;49.868;8.646;2023-04-25T09:15:03;7.85;;;4.18;;
71207;SDS011;58938;49.868;8.646;2023-04-25T09:17:30;11.95;;;4.57;;
71207;SDS011;58938;49.868;8.646;2023-04-25T09:20:04;8.75;;;4.70;;
71207;SDS011;58938;49.868;8.646;2023-04-25T09:22:31;8.63;;;4.53;;
71207;SDS011;58938;49.868;8.646;2023-04-25T09:24:57;8.25;;;3.60;;
71207;SDS011;58938;49.868;8.646;2023-04-25T09:27:23;9.07;;;4.57;;
71207;SDS011;58938;49.868;8.646;2023-04-25T09:29:50;5.63;;;3.55;;
71207;SDS011;58938;49.868;8.646;2023-04-25T09:32:22;7.88;;;4.05;;
71207;SDS011;58938;49.868;8.646;2023-04-25T09:34:55;11.73;;;3.93;;
71207;SDS011;58938;49.868;8.646;2023-04-25T09:39:48;9.48;;;3.53;;
71207;SDS011;58938;49.868;8.646;2023-04-25T09:42:14;9.65;;;5.03;;
71207;SDS011;58938;49.868;8.646;2023-04-25T09:44:41;11.47;;;4.23;;
71207;SDS011;58938;49.868;8.646;2023-04-25T09:47:11;10.63;;;4.38;;
71207;SDS011;58938;49.868;8.646;2023-04-25T09:49:41;12.30;;;4.78;;
71207;SDS011;58938;49.868;8.646;2023-04-25T09:52:07;8.80;;;4.70;;
71207;SDS011;58938;49.868;8.646;2023-04-25T09:54:33;10.35;;;4.60;;
71207;SDS011;58938;49.868;8.646;2023-04-25T09:57:02;8.13;;;4.43;;
71207;SDS011;58938;49.868;8.646;2023-04-25T09:59:34;7.82;;;3.97;;
71207;SDS011;58938;49.868;8.646;2023-04-25T10:02:03;8.93;;;4.28;;
71207;SDS011;58938;49.868;8.646;2023-04-25T10:04:29;6.68;;;3.33;;
71207;SDS011;58938;49.868;8.646;2023-04-25T10:06:57;7.78;;;4.88;;
71207;SDS011;58938;49.868;8.646;2023-04-25T10:09:25;8.73;;;4.40;;
71207;SDS011;58938;49.868;8.646;2023-04-25T10:11:54;8.48;;;4.18;;
71207;SDS011;58938;49.868;8.646;2023-04-25T10:14:20;7.65;;;3.22;;
71207;SDS011;58938;49.868;8.646;2023-04-25T10:16:47;8.98;;;4.65;;
71207;SDS011;58938;49.868;8.646;2023-04-25T10:19:13;9.65;;;4.63;;
71207;SDS011;58938;49.868;8.646;2023-04-25T10:22:26;6.87;;;3.87;;
71207;SDS011;58938;49.868;8.646;2023-04-25T10:24:26;7.45;;;3.40;;
71207;SDS011;58938;49.868;8.646;2023-04-25T10:26:52;8.00;;;4.53;;
71207;SDS011;58938;49.868;8.646;2023-04-25T10:29:22;11.00;;;4.80;;
71207;SDS011;58938;49.868;8.646;2023-04-25T10:31:48;9.60;;;4.95;;
71207;SDS011;58938;49.868;8.646;2023-04-25T10:34:15;8.57;;;4.27;;
71207;SDS011;58938;49.868;8.646;2023-04-25T10:36:41;8.18;;;4.50;;
71207;SDS011;58938;49.868;8.646;2023-04-25T10:39:07;10.10;;;4.18;;
71207;SDS011;58938;49.868;8.646;2023-04-25T10:41:46;10.65;;;5.70;;
71207;SDS011;58938;49.868;8.646;2023-04-25T10:44:13;7.05;;;4.13;;
71207;SDS011;58938;49.868;8.646;2023-04-25T10:46:39;7.40;;;3.67;;
71207;SDS011;58938;49.868;8.646;2023-04-25T10:49:05;8.20;;;5.45;;
71207;SDS011;58938;49.868;8.646;2023-04-25T10:51:35;10.43;;;5.47;;
71207;SDS011;58938;49.868;8.646;2023-04-25T10:54:05;6.15;;;3.53;;
71207;SDS011;58938;49.868;8.646;2023-04-25T10:59:16;10.77;;;5.40;;
71207;SDS011;58938;49.868;8.646;2023-04-25T11:01:44;9.98;;;4.65;;
71207;SDS011;58938;49.868;8.646;2023-04-25T11:04:18;12.73;;;6.60;;
71207;SDS011;58938;49.868;8.646;2023-04-25T11:09:30;15.65;;;7.25;;
71207;SDS011;58938;49.868;8.646;2023-04-25T11:11:58;12.57;;;6.77;;
71207;SDS011;58938;49.868;8.646;2023-04-25T11:14:25;10.50;;;5.47;;
71207;SDS011;58938;49.868;8.646;2023-04-25T11:16:58;10.38;;;5.72;;
71207;SDS011;58938;49.868;8.646;2023-04-25T11:19:24;8.60;;;4.57;;
71207;SDS011;58938;49.868;8.646;2023-04-25T11:21:50;9.60;;;4.35;;
71207;SDS011;58938;49.868;8.646;2023-04-25T11:24:21;9.77;;;5.43;;
71207;SDS011;58938;49.868;8.646;2023-04-25T11:26:50;9.98;;;4.25;;
71207;SDS011;58938;49.868;8.646;2023-04-25T11:29:17;11.10;;;4.50;;
71207;SDS011;58938;49.868;8.646;2023-04-25T11:31:43;8.75;;;5.07;;
71207;SDS011;58938;49.868;8.646;2023-04-25T11:34:16;15.17;;;5.77;;
71207;SDS011;58938;49.868;8.646;2023-04-25T11:36:42;9.23;;;4.18;;
71207;SDS011;58938;49.868;8.646;2023-04-25T11:39:08;8.10;;;4.68;;
71207;SDS011;58938;49.868;8.646;2023-04-25T11:41:35;10.02;;;5.13;;
71207;SDS011;58938;49.868;8.646;2023-04-25T11:44:02;10.52;;;5.70;;
71207;SDS011;58938;49.868;8.646;2023-04-25T11:46:28;12.30;;;5.23;;
71207;SDS011;58938;49.868;8.646;2023-04-25T11:48:54;9.73;;;4.95;;
71207;SDS011;58938;49.868;8.646;2023-04-25T11:51:21;8.98;;;4.80;;
71207;SDS011;58938;49.868;8.646;2023-04-25T11:53:47;11.73;;;5.75;;
71207;SDS011;58938;49.868;8.646;2023-04-25T11:56:13;11.20;;;5.73;;
71207;SDS011;58938;49.868;8.646;2023-04-25T11:58:58;7.60;;;4.13;;
71207;SDS011;58938;49.868;8.646;2023-04-25T12:01:29;7.72;;;4.70;;
71207;SDS011;58938;49.868;8.646;2023-04-25T12:03:56;12.32;;;5.30;;
71207;SDS011;58938;49.868;8.646;2023-04-25T12:06:25;12.02;;;5.53;;
71207;SDS011;58938;49.868;8.646;2023-04-25T12:08:59;11.03;;;6.33;;
71207;SDS011;58938;49.868;8.646;2023-04-25T12:11:25;11.63;;;5.53;;
71207;SDS011;58938;49.868;8.646;2023-04-25T12:13:51;11.30;;;4.97;;
71207;SDS011;58938;49.868;8.646;2023-04-25T12:16:18;12.00;;;5.70;;
71207;SDS011;58938;49.868;8.646;2023-04-25T12:18:44;14.17;;;6.10;;
71207;SDS011;58938;49.868;8.646;2023-04-25T12:21:10;11.85;;;5.85;;
71207;SDS011;58938;49.868;8.646;2023-04-25T12:23:38;11.07;;;5.65;;
71207;SDS011;58938;49.868;8.646;2023-04-25T12:26:04;12.23;;;5.70;;
71207;SDS011;58938;49.868;8.646;2023-04-25T12:28:31;9.87;;;5.30;;
71207;SDS011;58938;49.868;8.646;2023-04-25T12:31:04;11.77;;;5.55;;
71207;SDS011;58938;49.868;8.646;2023-04-25T12:33:32;11.93;;;5.93;;
71207;SDS011;58938;49.868;8.646;2023-04-25T12:35:58;9.80;;;4.55;;
71207;SDS011;58938;49.868;8.646;2023-04-25T12:38:26;13.35;;;6.00;;
71207;SDS011;58938;49.868;8.646;2023-04-25T12:40:52;12.43;;;6.40;;
71207;SDS011;58938;49.868;8.646;2023-04-25T12:43:18;9.48;;;4.78;;
71207;SDS011;58938;49.868;8.646;2023-04-25T12:45:47;11.10;;;5.07;;
71207;SDS011;58938;49.868;8.646;2023-04-25T12:48:13;11.95;;;5.60;;
71207;SDS011;58938;49.868;8.646;2023-04-25T12:50:39;9.80;;;6.10;;
71207;SDS011;58938;49.868;8.646;2023-04-25T12:53:06;14.53;;;6.20;;
71207;SDS011;58938;49.868;8.646;2023-04-25T12:55:32;10.05;;;5.00;;
71207;SDS011;58938;49.868;8.646;2023-04-25T12:57:57;11.25;;;5.50;;
71207;SDS011;58938;49.868;8.646;2023-04-25T13:00:23;11.25;;;5.30;;
71207;SDS011;58938;49.868;8.646;2023-04-25T13:02:49;12.37;;;6.10;;
71207;SDS011;58938;49.868;8.646;2023-04-25T13:05:15;11.48;;;5.78;;
71207;SDS011;58938;49.868;8.646;2023-04-25T13:07:41;8.15;;;3.42;;
71207;SDS011;58938;49.868;8.646;2023-04-25T13:10:07;9.60;;;5.72;;
71207;SDS011;58938;49.868;8.646;2023-04-25T13:12:33;9.05;;;5.05;;
71207;SDS011;58938;49.868;8.646;2023-04-25T13:15:00;6.87;;;3.80;;
71207;SDS011;58938;49.868;8.646;2023-04-25T13:17:25;13.05;;;5.70;;
71207;SDS011;58938;49.868;8.646;2023-04-25T13:19:51;8.27;;;4.40;;
71207;SDS011;58938;49.868;8.646;2023-04-25T13:22:17;11.10;;;5.40;;
71207;SDS011;58938;49.868;8.646;2023-04-25T13:24:45;10.57;;;6.17;;
71207;SDS011;58938;49.868;8.646;2023-04-25T13:27:11;9.32;;;5.10;;
71207;SDS011;58938;49.868;8.646;2023-04-25T13:29:37;13.02;;;6.10;;
71207;SDS011;58938;49.868;8.646;2023-04-25T13:32:05;11.20;;;4.63;;
71207;SDS011;58938;49.868;8.646;2023-04-25T13:34:31;7.00;;;3.65;;
71207;SDS011;58938;49.868;8.646;2023-04-25T13:36:57;12.30;;;5.57;;
71207;SDS011;58938;49.868;8.646;2023-04-25T13:39:23;12.32;;;5.93;;
71207;SDS011;58938;49.868;8.646;2023-04-25T13:41:49;5.35;;;3.40;;
71207;SDS011;58938;49.868;8.646;2023-04-25T13:44:15;10.70;;;5.47;;
71207;SDS011;58938;49.868;8.646;2023-04-25T13:46:41;11.43;;;5.67;;
71207;SDS011;58938;49.868;8.646;2023-04-25T13:49:07;9.45;;;4.65;;
71207;SDS011;58938;49.868;8.646;2023-04-25T13:51:33;9.32;;;4.85;;
71207;SDS011;58938;49.868;8.646;2023-04-25T13:53:59;10.90;;;4.53;;
71207;SDS011;58938;49.868;8.646;2023-04-25T13:56:26;8.40;;;4.03;;
71207;SDS011;58938;49.868;8.646;2023-04-25T13:58:52;10.75;;;4.72;;
71207;SDS011;58938;49.868;8.646;2023-04-25T14:01:18;9.70;;;4.70;;
71207;SDS011;58938;49.868;8.646;2023-04-25T14:03:45;10.40;;;5.30;;
71207;SDS011;58938;49.868;8.646;2023-04-25T14:06:11;11.50;;;5.32;;
71207;SDS011;58938;49.868;8.646;2023-04-25T14:08:38;10.20;;;5.10;;
71207;SDS011;58938;49.868;8.646;2023-04-25T14:11:05;8.73;;;4.57;;
71207;SDS011;58938;49.868;8.646;2023-04-25T14:13:31;8.70;;;3.55;;
71207;SDS011;58938;49.868;8.646;2023-04-25T14:15:56;7.82;;;3.60;;
71207;SDS011;58938;49.868;8.646;2023-04-25T14:18:22;7.50;;;3.43;;
71207;SDS011;58938;49.868;8.646;2023-04-25T14:20:48;7.90;;;4.28;;
71207;SDS011;58938;49.868;8.646;2023-04-25T14:23:14;8.20;;;4.22;;
71207;SDS011;58938;49.868;8.646;2023-04-25T14:25:42;8.73;;;4.40;;
71207;SDS011;58938;49.868;8.646;2023-04-25T14:28:09;9.27;;;3.70;;
71207;SDS011;58938;49.868;8.646;2023-04-25T14:30:35;9.50;;;4.40;;
71207;SDS011;58938;49.868;8.646;2023-04-25T14:33:01;11.73;;;4.90;;
71207;SDS011;58938;49.868;8.646;2023-04-25T14:35:27;7.78;;;4.40;;
71207;SDS011;58938;49.868;8.646;2023-04-25T14:37:53;8.63;;;4.35;;
71207;SDS011;58938;49.868;8.646;2023-04-25T14:40:19;10.53;;;4.83;;
71207;SDS011;58938;49.868;8.646;2023-04-25T14:42:47;9.32;;;4.68;;